Time;durP1;ratioP1;P1;durP2;ratioP2;P2;SDS_P1;SDS_P2;PMS_P1;PMS_P2;Temp;Humidity;BMP_temperature;BMP_pressure;BME280_temperature;BME280_humidity;BME280_pressure;Samples;Min_cycle;Max_cycle;Signal;HPM_P1;HPM_P2
2022/11/18 00:01:23;;;;;;;8.95;4.72;;;;;;;8.06;100.00;99170.41;6052205;23;20097;-72
2022/11/18 00:03:51;;;;;;;5.03;4.72;;;;;;;7.75;100.00;99116.75;6061601;23;20594;-72
2022/11/18 00:06:20;;;;;;;4.40;4.20;;;;;;;8.33;100.00;99209.53;6071196;23;20028;-72
2022/11/18 00:08:47;;;;;;;5.60;5.10;;;;;;;8.33;100.00;99208.72;6063226;23;20083;-72
2022/11/18 00:14:18;;;;;;;4.53;4.18;;;;;;;8.35;100.00;99209.44;6031361;23;20078;-72
2022/11/18 00:16:47;;;;;;;4.30;4.03;;;;;;;8.34;100.00;99211.22;6075520;23;20118;-72
2022/11/18 00:19:14;;;;;;;9.32;4.65;;;;;;;8.24;100.00;99198.84;6056896;23;20593;-73
2022/11/18 00:21:41;;;;;;;5.30;4.40;;;;;;;7.57;100.00;99096.13;6073548;23;20021;-73
2022/11/18 00:24:08;;;;;;;4.30;4.10;;;;;;;8.32;100.00;99218.34;6061411;23;20026;-73
2022/11/18 00:26:35;;;;;;;4.15;3.95;;;;;;;8.18;100.00;99216.63;6050819;23;20081;-72
2022/11/18 00:29:02;;;;;;;5.13;4.68;;;;;;;8.28;100.00;99222.09;6080481;23;20030;-72
2022/11/18 00:31:29;;;;;;;5.75;4.30;;;;;;;8.26;100.00;99223.97;6027709;23;20022;-72
2022/11/18 00:33:55;;;;;;;5.13;4.65;;;;;;;7.76;100.00;99158.44;6075929;23;20082;-72
2022/11/18 00:36:22;;;;;;;4.25;4.05;;;;;;;7.53;100.00;99106.88;6076743;23;20022;-72
2022/11/18 00:38:48;;;;;;;4.15;3.95;;;;;;;8.26;100.00;99229.19;6079567;23;20055;-72
2022/11/18 00:41:15;;;;;;;8.65;5.28;;;;;;;7.65;100.00;99128.72;6057219;23;20082;-72
2022/11/18 00:43:41;;;;;;;4.13;3.92;;;;;;;7.31;100.00;99076.09;6073741;23;20081;-72
2022/11/18 00:46:10;;;;;;;4.40;4.15;;;;;;;8.27;100.00;99230.03;6065754;23;20022;-73
2022/11/18 00:48:36;;;;;;;4.32;4.10;;;;;;;8.27;100.00;99232.66;6043630;23;20048;-72
2022/11/18 00:51:15;;;;;;;4.47;4.28;;;;;;;7.19;100.00;99068.13;6046472;23;20075;-71
2022/11/18 00:53:42;;;;;;;4.30;4.10;;;;;;;7.33;100.00;99108.16;6083907;23;20028;-73
2022/11/18 00:56:08;;;;;;;4.57;4.30;;;;;;;8.25;100.00;99244.97;6094934;23;20699;-72
2022/11/18 00:58:35;;;;;;;4.43;4.22;;;;;;;7.71;100.00;99181.38;6065561;23;20006;-74
2022/11/18 01:01:02;;;;;;;4.55;4.32;;;;;;;6.71;100.00;98997.31;6088284;23;20190;-71
2022/11/18 01:03:30;;;;;;;4.35;4.13;;;;;;;8.26;100.00;99252.72;6058210;23;20010;-71
2022/11/18 01:05:56;;;;;;;4.43;4.22;;;;;;;8.25;100.00;99264.09;6077612;23;20021;-71
2022/11/18 01:08:24;;;;;;;4.75;4.50;;;;;;;8.26;100.00;99260.56;6041860;23;20014;-73
2022/11/18 01:10:51;;;;;;;4.65;4.45;;;;;;;7.99;100.00;99224.00;6047295;23;20027;-71
2022/11/18 01:13:20;;;;;;;5.50;5.15;;;;;;;8.28;100.00;99268.28;6074280;23;20015;-72
2022/11/18 01:15:52;;;;;;;4.75;4.35;;;;;;;8.26;100.00;99272.78;6085303;23;20037;-72
2022/11/18 01:18:22;;;;;;;8.40;5.65;;;;;;;8.08;100.00;99240.84;6063696;23;20170;-71
2022/11/18 01:20:49;;;;;;;4.38;4.10;;;;;;;8.24;100.00;99272.03;6070088;23;20044;-75
2022/11/18 01:23:16;;;;;;;4.72;4.28;;;;;;;8.19;100.00;99267.13;6059845;23;20087;-71
2022/11/18 01:25:44;;;;;;;7.05;4.10;;;;;;;8.14;100.00;99270.03;6056247;23;20034;-74
2022/11/18 01:28:12;;;;;;;4.50;4.10;;;;;;;8.11;100.00;99267.59;6079797;23;20016;-71
2022/11/18 01:30:40;;;;;;;4.60;4.40;;;;;;;7.74;100.00;99222.16;6062170;23;20026;-71
2022/11/18 01:33:07;;;;;;;8.65;4.53;;;;;;;8.07;100.00;99280.97;6040973;23;20026;-72
2022/11/18 01:35:38;;;;;;;5.13;4.72;;;;;;;7.73;100.00;99230.91;6043315;23;20576;-75
2022/11/18 01:38:05;;;;;;;4.57;4.18;;;;;;;7.83;100.00;99270.34;6061031;23;20045;-73
2022/11/18 01:40:33;;;;;;;4.35;4.15;;;;;;;7.91;100.00;99287.19;6074470;23;20029;-74
2022/11/18 01:43:00;;;;;;;4.13;3.92;;;;;;;7.12;100.00;99168.59;6036279;23;20495;-71
2022/11/18 01:45:36;;;;;;;4.75;4.55;;;;;;;7.29;100.00;99200.63;6061672;23;20446;-75
2022/11/18 01:48:11;;;;;;;4.40;3.90;;;;;;;7.87;100.00;99285.69;6076605;23;20022;-71
2022/11/18 01:50:46;;;;;;;9.00;4.68;;;;;;;7.17;100.00;99190.00;6068965;23;20101;-72
2022/11/18 01:53:17;;;;;;;3.88;3.67;;;;;;;7.58;100.00;99240.56;6067954;23;20025;-72
2022/11/18 01:55:47;;;;;;;4.38;4.13;;;;;;;7.92;100.00;99294.09;6053567;23;20006;-71
2022/11/18 01:58:29;;;;;;;4.55;4.25;;;;;;;7.80;100.00;99263.53;6076034;23;20759;-72
2022/11/18 02:00:56;;;;;;;3.97;3.78;;;;;;;7.51;100.00;99214.00;6047853;23;20080;-72
2022/11/18 02:03:24;;;;;;;4.22;4.03;;;;;;;7.13;100.00;99165.03;6052420;23;20030;-72
2022/11/18 02:05:53;;;;;;;4.18;3.95;;;;;;;7.58;100.00;99233.56;6031735;23;20218;-71
2022/11/18 02:08:21;;;;;;;4.38;4.18;;;;;;;8.03;100.00;99301.25;6050350;23;20073;-72
2022/11/18 02:10:47;;;;;;;4.80;4.50;;;;;;;8.07;100.00;99314.94;6078882;23;20511;-72
2022/11/18 02:13:14;;;;;;;4.25;4.05;;;;;;;7.94;100.00;99284.38;6076287;23;20061;-72
2022/11/18 02:15:53;;;;;;;4.00;3.80;;;;;;;8.10;100.00;99309.53;6027884;23;20314;-72
2022/11/18 02:18:48;;;;;;;5.95;3.97;;;;;;;8.12;100.00;99321.56;6071795;23;20396;-72
2022/11/18 02:21:45;;;;;;;4.00;3.80;;;;;;;8.13;100.00;99319.78;6046367;23;20135;-71
2022/11/18 02:24:35;;;;;;;3.88;3.67;;;;;;;7.99;100.00;99307.59;6044472;23;20014;-72
2022/11/18 02:27:33;;;;;;;8.15;4.00;;;;;;;8.16;100.00;99327.44;6071720;23;20022;-72
2022/11/18 02:30:09;;;;;;;4.00;3.80;;;;;;;7.06;100.00;99155.94;6057776;23;21018;-72
2022/11/18 02:32:51;;;;;;;5.00;4.55;;;;;;;8.15;100.00;99337.03;6087653;23;20021;-72
2022/11/18 02:35:26;;;;;;;4.03;3.83;;;;;;;8.10;100.00;99318.22;6061117;23;20025;-72
2022/11/18 02:38:06;;;;;;;4.78;4.53;;;;;;;8.13;100.00;99333.69;6053409;23;20048;-72
2022/11/18 02:40:38;;;;;;;4.25;4.05;;;;;;;7.82;100.00;99277.34;6074543;23;20101;-71
2022/11/18 02:43:20;;;;;;;4.38;4.07;;;;;;;8.09;100.00;99331.38;6041134;23;20033;-71
2022/11/18 02:45:52;;;;;;;4.35;4.15;;;;;;;7.92;100.00;99316.78;6083008;23;20037;-72
2022/11/18 02:48:23;;;;;;;4.80;4.50;;;;;;;8.07;100.00;99341.91;6064623;23;20018;-71
2022/11/18 02:50:51;;;;;;;5.05;4.65;;;;;;;8.06;100.00;99337.63;6074325;23;20534;-73
2022/11/18 02:53:19;;;;;;;4.30;4.10;;;;;;;8.07;100.00;99343.69;6041439;23;20030;-71
2022/11/18 02:55:48;;;;;;;4.30;3.90;;;;;;;7.49;100.00;99262.84;6076383;23;20034;-72
2022/11/18 02:58:17;;;;;;;5.40;4.63;;;;;;;7.65;100.00;99283.59;6064528;23;20030;-72
2022/11/18 03:00:44;;;;;;;4.22;4.03;;;;;;;7.74;100.00;99326.59;6075936;23;20022;-72
2022/11/18 03:03:31;;;;;;;4.43;4.22;;;;;;;7.80;100.00;99331.44;6064951;23;20034;-72
2022/11/18 03:06:25;;;;;;;4.35;4.15;;;;;;;8.08;100.00;99353.19;6054383;23;20030;-72
2022/11/18 03:09:13;;;;;;;4.43;4.22;;;;;;;8.08;100.00;99356.66;6018530;23;20229;-72
2022/11/18 03:11:58;;;;;;;4.97;4.65;;;;;;;8.05;100.00;99361.25;6070186;23;20022;-72
2022/11/18 03:14:54;;;;;;;4.43;4.13;;;;;;;6.92;100.00;99200.31;6063930;23;20018;-74
2022/11/18 03:17:57;;;;;;;4.72;4.47;;;;;;;6.90;100.00;99176.91;6027747;23;20660;-71
2022/11/18 03:20:32;;;;;;;4.55;4.25;;;;;;;7.81;100.00;99335.72;6056056;23;20040;-71
2022/11/18 03:23:19;;;;;;;4.63;4.22;;;;;;;7.96;100.00;99360.88;6045468;23;20014;-73
2022/11/18 03:25:53;;;;;;;4.22;4.03;;;;;;;6.69;100.00;99160.81;6066376;23;20109;-74
2022/11/18 03:28:45;;;;;;;6.00;4.45;;;;;;;7.47;100.00;99314.31;6066241;23;20021;-71
2022/11/18 03:31:22;;;;;;;4.85;4.45;;;;;;;7.61;100.00;99317.84;6061612;23;20020;-74
2022/11/18 03:33:58;;;;;;;6.70;4.35;;;;;;;7.93;100.00;99378.53;6068161;23;20038;-72
2022/11/18 03:36:31;;;;;;;4.35;4.15;;;;;;;7.68;100.00;99340.03;6075950;23;20014;-71
2022/11/18 03:39:01;;;;;;;9.48;4.57;;;;;;;7.93;100.00;99379.34;6062146;23;20671;-72
2022/11/18 03:41:31;;;;;;;4.95;4.53;;;;;;;7.34;100.00;99292.53;6070129;23;20018;-75
2022/11/18 03:44:09;;;;;;;4.30;4.00;;;;;;;7.94;100.00;99394.09;6052777;23;20298;-74
2022/11/18 03:46:49;;;;;;;4.70;4.40;;;;;;;6.99;100.00;99251.16;6077612;23;20016;-74
2022/11/18 03:49:29;;;;;;;4.60;4.30;;;;;;;7.93;100.00;99397.63;6060158;23;20300;-74
2022/11/18 03:52:00;;;;;;;5.43;4.93;;;;;;;6.33;100.00;99136.03;6054954;23;20030;-72
2022/11/18 03:54:30;;;;;;;4.15;3.92;;;;;;;7.75;100.00;99375.28;6074159;23;20014;-72
2022/11/18 03:57:01;;;;;;;4.40;4.10;;;;;;;7.92;100.00;99413.44;6051203;23;20038;-72
2022/11/18 03:59:34;;;;;;;4.00;3.83;;;;;;;7.93;100.00;99410.69;6075784;23;20026;-71
2022/11/18 04:02:18;;;;;;;5.30;4.80;;;;;;;7.92;100.00;99414.25;6064312;23;20084;-72
2022/11/18 04:04:48;;;;;;;4.38;4.18;;;;;;;7.92;100.00;99413.44;6087023;23;20031;-72
2022/11/18 04:07:30;;;;;;;4.68;4.38;;;;;;;6.93;100.00;99259.34;6055347;23;20184;-72
2022/11/18 04:10:01;;;;;;;;;;;;;;;7.92;100.00;99421.25;6073873;23;20526;-72
2022/11/18 04:12:32;;;;;;;4.95;4.75;;;;;;;7.06;100.00;99278.53;6059856;23;19934;-71
2022/11/18 04:14:58;;;;;;;4.05;3.85;;;;;;;7.59;100.00;99388.44;6068749;23;20024;-72
2022/11/18 04:17:27;;;;;;;4.15;3.95;;;;;;;7.52;100.00;99368.88;6039828;23;20022;-71
2022/11/18 04:19:54;;;;;;;5.72;4.45;;;;;;;7.90;100.00;99436.19;6076169;23;20015;-72
2022/11/18 04:22:20;;;;;;;4.60;4.40;;;;;;;7.79;100.00;99421.16;6037036;23;20090;-73
2022/11/18 04:24:47;;;;;;;4.90;4.70;;;;;;;7.72;100.00;99436.38;6029912;23;20047;-73
2022/11/18 04:27:13;;;;;;;4.15;3.95;;;;;;;7.89;100.00;99440.56;6086316;23;20272;-73
2022/11/18 04:29:40;;;;;;;4.38;4.10;;;;;;;7.90;100.00;99447.47;6059618;23;20018;-72
2022/11/18 04:32:06;;;;;;;4.80;4.05;;;;;;;7.52;100.00;99385.38;6078904;23;20080;-71
2022/11/18 04:34:33;;;;;;;5.07;4.78;;;;;;;6.92;100.00;99287.19;6068497;23;20041;-71
2022/11/18 04:37:00;;;;;;;4.22;4.03;;;;;;;7.85;100.00;99433.84;6057767;23;20051;-71
2022/11/18 04:39:27;;;;;;;4.25;4.05;;;;;;;7.36;100.00;99367.19;6057074;23;20030;-71
2022/11/18 04:41:56;;;;;;;5.40;4.00;;;;;;;7.94;100.00;99448.13;6040431;23;20030;-71
2022/11/18 04:44:31;;;;;;;4.22;4.03;;;;;;;7.94;100.00;99459.41;6073355;23;20090;-74
2022/11/18 04:47:00;;;;;;;5.18;4.82;;;;;;;7.94;100.00;99463.81;6059034;23;20022;-71
2022/11/18 04:49:28;;;;;;;4.75;4.45;;;;;;;7.95;100.00;99470.69;6074758;23;20084;-71
2022/11/18 04:51:55;;;;;;;4.40;4.20;;;;;;;7.93;100.00;99473.41;6061569;23;20030;-71
2022/11/18 04:54:23;;;;;;;4.47;4.28;;;;;;;6.80;100.00;99290.53;6057603;23;20391;-74
2022/11/18 04:56:49;;;;;;;4.10;3.90;;;;;;;7.73;100.00;99456.31;6077535;23;20026;-74
2022/11/18 04:59:19;;;;;;;4.45;4.22;;;;;;;7.49;100.00;99424.69;6063504;23;20050;-74
2022/11/18 05:01:47;;;;;;;4.55;4.35;;;;;;;7.78;100.00;99475.19;6072762;23;20053;-72
2022/11/18 05:04:16;;;;;;;4.47;4.20;;;;;;;7.33;100.00;99413.50;6099822;23;20048;-72
2022/11/18 05:06:43;;;;;;;8.32;4.35;;;;;;;6.86;100.00;99370.19;6061617;23;20013;-72
2022/11/18 05:09:10;;;;;;;4.07;3.88;;;;;;;7.15;100.00;99418.84;6062501;23;20030;-72
2022/11/18 05:14:24;;;;;;;5.18;4.68;;;;;;;7.10;100.00;99430.50;6076792;23;20036;-72
2022/11/18 05:16:50;;;;;;;4.28;4.05;;;;;;;4.68;100.00;99040.47;6058497;23;20035;-72
2022/11/18 05:19:17;;;;;;;4.70;4.45;;;;;;;6.69;100.00;99364.16;6074372;23;20885;-72
2022/11/18 05:21:43;;;;;;;4.40;4.20;;;;;;;6.31;100.00;99306.41;6061957;23;20022;-72
2022/11/18 05:24:10;;;;;;;3.90;3.70;;;;;;;6.05;100.00;99256.63;6067278;23;20174;-73
2022/11/18 05:26:36;;;;;;;4.55;4.22;;;;;;;5.83;100.00;99223.13;6040256;23;20230;-72
2022/11/18 05:29:03;;;;;;;4.82;4.55;;;;;;;6.99;100.00;99428.50;6049373;23;20077;-72
2022/11/18 05:31:29;;;;;;;4.72;4.45;;;;;;;7.45;100.00;99501.50;6073297;23;20143;-72
2022/11/18 05:33:56;;;;;;;4.43;4.13;;;;;;;6.23;100.00;99304.22;6065776;23;20085;-72
2022/11/18 05:36:23;;;;;;;4.20;4.00;;;;;;;6.81;100.00;99409.53;6035735;23;20010;-71
2022/11/18 05:38:49;;;;;;;4.20;3.97;;;;;;;6.04;100.00;99283.59;6077522;23;20256;-73
2022/11/18 05:44:03;;;;;;;4.30;4.10;;;;;;;7.43;100.00;99515.59;6043130;23;20038;-73
2022/11/18 05:46:31;;;;;;;6.22;5.85;;;;;;;7.44;100.00;99517.25;6080369;23;20022;-72
2022/11/18 05:48:57;;;;;;;3.92;3.72;;;;;;;7.33;100.00;99489.16;6069558;23;20038;-72
2022/11/18 05:51:23;;;;;;;4.20;4.00;;;;;;;6.88;100.00;99416.09;6042414;23;20025;-72
2022/11/18 05:53:51;;;;;;;4.63;4.43;;;;;;;6.79;100.00;99404.44;6058074;23;20033;-72
2022/11/18 05:56:23;;;;;;;4.40;4.20;;;;;;;7.47;100.00;99525.75;6064340;23;20112;-71
2022/11/18 05:58:49;;;;;;;4.45;4.18;;;;;;;7.33;100.00;99500.44;6048616;23;20089;-72
2022/11/18 06:01:23;;;;;;;4.43;4.22;;;;;;;6.99;100.00;99455.41;6095899;23;20053;-72
2022/11/18 06:03:50;;;;;;;3.97;3.78;;;;;;;5.97;100.00;99297.88;6043986;23;20023;-72
2022/11/18 06:06:20;;;;;;;4.15;3.95;;;;;;;6.92;100.00;99450.66;6066339;23;20054;-73
2022/11/18 06:08:55;;;;;;;4.25;4.05;;;;;;;7.29;100.00;99513.78;6052504;23;20456;-72
2022/11/18 06:11:22;;;;;;;4.60;4.30;;;;;;;6.75;100.00;99442.00;6038508;23;20019;-73
2022/11/18 06:14:02;;;;;;;4.60;4.32;;;;;;;7.23;100.00;99543.66;6077588;23;20097;-72
2022/11/18 06:16:31;;;;;;;6.40;5.18;;;;;;;7.17;100.00;99547.44;6059562;23;20044;-72
2022/11/18 06:19:05;;;;;;;4.45;4.15;;;;;;;5.82;100.00;99325.59;6057717;23;20029;-72
2022/11/18 06:21:32;;;;;;;4.18;3.92;;;;;;;7.27;100.00;99562.59;6063277;23;20051;-73
2022/11/18 06:23:59;;;;;;;5.05;4.75;;;;;;;7.22;100.00;99588.09;6081781;23;20022;-73
2022/11/18 06:26:26;;;;;;;4.70;4.30;;;;;;;7.17;100.00;99573.53;6044749;23;20021;-72
2022/11/18 06:28:54;;;;;;;4.70;4.40;;;;;;;5.78;100.00;99350.09;6026307;23;20034;-72
2022/11/18 06:31:21;;;;;;;4.82;4.53;;;;;;;7.10;100.00;99582.66;6057701;23;20024;-72
2022/11/18 06:33:47;;;;;;;8.65;4.95;;;;;;;7.09;100.00;99585.34;6064550;23;20042;-74
2022/11/18 06:36:13;;;;;;;4.57;4.20;;;;;;;4.03;100.00;99101.91;6055965;23;20191;-72
2022/11/18 06:38:40;;;;;;;4.60;4.40;;;;;;;6.41;100.00;99504.78;6079658;23;20551;-74
2022/11/18 06:41:06;;;;;;;5.10;4.75;;;;;;;6.04;100.00;99424.25;6054916;23;20367;-73
2022/11/18 06:43:42;;;;;;;8.00;5.72;;;;;;;6.70;100.00;99534.47;6049491;23;20163;-72
2022/11/18 06:49:03;;;;;;;4.75;4.45;;;;;;;7.16;100.00;99608.41;6070633;23;20438;-71
2022/11/18 06:51:30;;;;;;;10.85;6.15;;;;;;;6.85;100.00;99567.50;6066520;23;20022;-74
2022/11/18 06:53:56;;;;;;;6.00;5.47;;;;;;;6.55;100.00;99529.16;6080052;23;20026;-73
2022/11/18 06:56:23;;;;;;;5.03;4.63;;;;;;;6.93;100.00;99594.00;6056945;23;20208;-72
2022/11/18 06:58:57;;;;;;;5.65;5.25;;;;;;;5.96;100.00;99435.06;6077281;23;20241;-73
2022/11/18 07:01:26;;;;;;;5.47;4.70;;;;;;;6.37;100.00;99514.50;6059732;23;20190;-72
2022/11/18 07:03:53;;;;;;;7.57;5.30;;;;;;;6.92;100.00;99610.59;6040229;23;20030;-72
2022/11/18 07:06:25;;;;;;;4.75;4.55;;;;;;;7.12;100.00;99635.59;6063735;23;20049;-72
2022/11/18 07:08:52;;;;;;;4.45;4.15;;;;;;;7.04;100.00;99632.56;6058006;23;20024;-72
2022/11/18 07:11:21;;;;;;;4.18;3.97;;;;;;;6.73;100.00;99578.63;6054436;23;20017;-72
2022/11/18 07:13:47;;;;;;;4.75;4.45;;;;;;;6.98;100.00;99612.03;6056062;23;20030;-70
2022/11/18 07:16:17;;;;;;;4.65;4.35;;;;;;;7.32;100.00;99667.59;6049610;23;20137;-70
2022/11/18 07:18:45;;;;;;;4.75;4.45;;;;;;;6.61;100.00;99548.00;6059457;23;20014;-70
2022/11/18 07:21:14;;;;;;;4.07;3.88;;;;;;;6.96;100.00;99606.06;6052507;23;20129;-70
2022/11/18 07:23:41;;;;;;;4.90;3.90;;;;;;;6.97;100.00;99598.13;6066401;23;20038;-70
2022/11/18 07:26:08;;;;;;;4.45;4.25;;;;;;;7.42;100.00;99667.88;6035990;23;20026;-70
2022/11/18 07:28:35;;;;;;;4.18;3.97;;;;;;;7.54;100.00;99688.94;6051494;23;20402;-70
2022/11/18 07:31:03;;;;;;;4.15;3.95;;;;;;;7.14;100.00;99633.75;6067494;23;20421;-70
2022/11/18 07:33:31;;;;;;;3.75;3.58;;;;;;;7.63;100.00;99694.59;6062424;23;20021;-70
2022/11/18 07:36:06;;;;;;;4.57;4.28;;;;;;;7.66;100.00;99700.47;6068394;23;20032;-70
2022/11/18 07:38:32;;;;;;;4.00;3.80;;;;;;;7.70;100.00;99712.44;6053969;23;20033;-70
2022/11/18 07:41:12;;;;;;;4.22;3.88;;;;;;;6.63;100.00;99528.72;6053385;23;20080;-70
2022/11/18 07:43:39;;;;;;;4.00;3.80;;;;;;;6.94;100.00;99580.06;6045138;23;20037;-70
2022/11/18 07:46:13;;;;;;;4.22;3.92;;;;;;;7.83;100.00;99716.97;6073176;23;20138;-70
2022/11/18 07:48:41;;;;;;;4.60;4.30;;;;;;;7.84;100.00;99724.72;6059018;23;20038;-70
2022/11/18 07:51:07;;;;;;;4.10;3.90;;;;;;;7.90;100.00;99718.31;6070167;23;20025;-70
2022/11/18 07:53:35;;;;;;;5.18;4.60;;;;;;;7.93;100.00;99716.34;6057734;23;20033;-70
2022/11/18 07:56:02;;;;;;;5.57;4.70;;;;;;;7.98;100.00;99735.22;6069450;23;20106;-70
2022/11/18 07:58:29;;;;;;;4.28;4.05;;;;;;;8.00;100.00;99729.91;6054669;23;20026;-71
2022/11/18 08:00:55;;;;;;;4.40;4.10;;;;;;;8.04;100.00;99736.66;6082757;23;20042;-70
2022/11/18 08:03:28;;;;;;;4.10;3.85;;;;;;;7.47;100.00;99640.59;6043799;23;20006;-70
2022/11/18 08:05:58;;;;;;;4.57;4.38;;;;;;;7.59;100.00;99673.84;6077009;23;20033;-70
2022/11/18 08:08:25;;;;;;;9.10;5.13;;;;;;;7.97;100.00;99724.84;6045394;23;20019;-70
2022/11/18 08:10:56;;;;;;;12.93;5.85;;;;;;;7.93;100.00;99734.63;6064960;23;20042;-70
2022/11/18 08:13:24;;;;;;;6.50;4.55;;;;;;;7.30;100.00;99640.72;6040271;23;20018;-70
2022/11/18 08:15:51;;;;;;;5.00;4.50;;;;;;;7.64;100.00;99698.88;6070008;23;20043;-70
2022/11/18 08:18:18;;;;;;;9.95;4.63;;;;;;;7.88;100.00;99733.22;6044435;23;20038;-70
2022/11/18 08:20:44;;;;;;;4.60;4.20;;;;;;;7.58;100.00;99689.63;6062898;23;20456;-70
2022/11/18 08:23:11;;;;;;;4.30;4.10;;;;;;;7.75;100.00;99715.63;6030684;23;20086;-70
2022/11/18 08:25:38;;;;;;;6.68;6.20;;;;;;;7.93;100.00;99739.84;6061632;23;20077;-69
2022/11/18 08:28:06;;;;;;;5.40;5.00;;;;;;;7.32;100.00;99639.72;6040153;23;20023;-70
2022/11/18 08:30:33;;;;;;;4.38;4.15;;;;;;;8.01;100.00;99756.88;6041042;23;20026;-70
2022/11/18 08:33:00;;;;;;;5.07;4.78;;;;;;;8.04;100.00;99747.09;6079582;23;20060;-70
2022/11/18 08:35:27;;;;;;;4.30;4.10;;;;;;;8.09;100.00;99749.44;6065814;23;20018;-70
2022/11/18 08:37:54;;;;;;;4.30;4.10;;;;;;;8.17;100.00;99755.91;6046833;23;20089;-70
2022/11/18 08:40:21;;;;;;;4.43;4.22;;;;;;;8.29;100.00;99772.66;6066149;23;20010;-69
2022/11/18 08:42:47;;;;;;;4.68;4.38;;;;;;;8.32;100.00;99750.75;6052604;23;20038;-69
2022/11/18 08:45:14;;;;;;;4.60;4.40;;;;;;;8.38;100.00;99719.84;6064954;23;20017;-69
2022/11/18 08:47:40;;;;;;;4.78;4.45;;;;;;;8.70;100.00;99765.97;6042677;23;20022;-70
2022/11/18 08:50:09;;;;;;;4.47;4.20;;;;;;;8.86;100.00;99763.28;6046787;23;20091;-69
2022/11/18 08:52:36;;;;;;;4.50;4.20;;;;;;;8.85;100.00;99745.91;6070974;23;20092;-71
2022/11/18 08:55:03;;;;;;;5.43;5.03;;;;;;;9.10;100.00;99763.56;6053473;23;20026;-69
2022/11/18 08:57:29;;;;;;;4.70;4.43;;;;;;;9.19;100.00;99763.84;6073430;23;20408;-70
2022/11/18 08:59:56;;;;;;;5.53;5.05;;;;;;;9.31;100.00;99762.25;6071186;23;20081;-70
2022/11/18 09:02:23;;;;;;;4.97;4.68;;;;;;;8.78;100.00;99657.34;6054887;23;20491;-71
2022/11/18 09:04:50;;;;;;;4.68;4.47;;;;;;;9.45;100.00;99771.88;6059960;23;20022;-71
2022/11/18 09:07:18;;;;;;;4.60;4.40;;;;;;;9.43;100.00;99773.75;6050901;23;20467;-70
2022/11/18 09:09:45;;;;;;;5.68;4.78;;;;;;;8.89;100.00;99708.16;6061466;23;20022;-72
2022/11/18 09:12:13;;;;;;;12.43;4.70;;;;;;;9.02;100.00;99745.75;6057623;23;20488;-70
2022/11/18 09:14:41;;;;;;;6.40;5.18;;;;;;;9.17;100.00;99757.88;6071179;23;20101;-69
2022/11/18 09:17:28;;;;;;;4.53;4.30;;;;;;;8.96;100.00;99717.31;6052269;23;20182;-69
2022/11/18 09:19:54;;;;;;;5.63;4.53;;;;;;;9.16;100.00;99730.03;6063376;23;20018;-70
2022/11/18 09:22:21;;;;;;;5.00;4.50;;;;;;;9.17;100.00;99723.84;6048003;23;20433;-70
2022/11/18 09:24:47;;;;;;;5.75;4.95;;;;;;;9.60;100.00;99777.91;6044911;23;20417;-69
2022/11/18 09:27:13;;;;;;;11.20;4.72;;;;;;;9.74;100.00;99798.88;6068635;23;20032;-70
2022/11/18 09:29:43;;;;;;;5.00;4.45;;;;;;;9.85;100.00;99807.84;6064453;23;20285;-70
2022/11/18 09:32:09;;;;;;;5.35;4.95;;;;;;;8.96;100.00;99660.59;6032485;23;20021;-70
2022/11/18 09:34:36;;;;;;;8.32;5.20;;;;;;;9.71;100.00;99801.69;6067585;23;20021;-71
2022/11/18 09:37:05;;;;;;;5.20;4.90;;;;;;;9.85;100.00;99819.16;6055147;23;20101;-70
2022/11/18 09:39:35;;;;;;;6.35;4.60;;;;;;;8.68;100.00;99622.22;6060848;23;20487;-69
2022/11/18 09:42:14;;;;;;;4.60;4.40;;;;;;;10.06;100.00;99834.44;6086780;23;20265;-69
2022/11/18 09:45:11;;;;;;;4.68;4.38;;;;;;;8.93;100.00;99636.41;6063337;23;20292;-70
2022/11/18 09:47:42;;;;;;;4.88;4.50;;;;;;;9.76;100.00;99791.75;6045675;23;20011;-72
2022/11/18 09:50:15;;;;;;;4.70;4.50;;;;;;;10.24;100.00;99861.25;6063976;23;20022;-70
2022/11/18 09:53:18;;;;;;;4.97;4.68;;;;;;;10.27;100.00;99871.56;6052809;23;20024;-70
2022/11/18 09:55:46;;;;;;;4.68;4.45;;;;;;;10.31;100.00;99879.16;6045270;23;20026;-71
2022/11/18 09:58:34;;;;;;;5.82;4.80;;;;;;;9.93;100.00;99808.19;6062009;23;20174;-71
2022/11/18 10:01:02;;;;;;;5.20;4.90;;;;;;;10.59;100.00;99885.25;6042787;23;20511;-71
2022/11/18 10:03:31;;;;;;;5.13;4.72;;;;;;;10.57;100.00;99887.13;6037644;23;20179;-69
2022/11/18 10:06:03;;;;;;;6.63;4.95;;;;;;;10.73;100.00;99893.06;6050637;23;20133;-69
2022/11/18 10:08:38;;;;;;;5.07;4.75;;;;;;;10.82;100.00;99888.13;6066404;23;20030;-70
2022/11/18 10:11:16;;;;;;;4.97;4.78;;;;;;;10.93;100.00;99901.41;6045939;23;20312;-70
2022/11/18 10:14:01;;;;;;;5.93;5.43;;;;;;;10.95;100.00;99902.97;6048394;23;20638;-69
2022/11/18 10:16:33;;;;;;;4.85;4.65;;;;;;;10.89;100.00;99911.25;6058288;23;20058;-69
2022/11/18 10:19:12;;;;;;;5.70;4.75;;;;;;;10.13;100.00;99783.31;6078112;23;20033;-70
2022/11/18 10:21:51;;;;;;;5.03;4.70;;;;;;;10.99;100.00;99906.25;6053955;23;20042;-69
2022/11/18 10:24:21;;;;;;;4.93;4.63;;;;;;;11.03;100.00;99912.97;6063498;23;20207;-70
2022/11/18 10:26:57;;;;;;;4.93;4.53;;;;;;;11.22;100.00;99912.56;6026987;23;20035;-70
2022/11/18 10:29:24;;;;;;;4.95;4.68;;;;;;;11.43;100.00;99918.16;6057565;23;20018;-70
2022/11/18 10:32:04;;;;;;;5.05;4.63;;;;;;;11.60;100.00;99921.41;6028638;23;20119;-69
2022/11/18 10:34:33;;;;;;;5.50;5.00;;;;;;;11.68;100.00;99916.47;6045896;23;20097;-69
2022/11/18 10:37:05;;;;;;;5.53;5.20;;;;;;;11.81;100.00;99903.31;6073910;23;20060;-70
2022/11/18 10:39:32;;;;;;;4.93;4.65;;;;;;;12.03;99.98;99923.69;6074814;23;20369;-69
2022/11/18 10:42:05;;;;;;;4.75;4.47;;;;;;;11.42;96.87;99837.66;6047518;23;20027;-69
2022/11/18 10:44:34;;;;;;;5.28;4.97;;;;;;;11.61;96.27;99876.66;6043691;23;20026;-70
2022/11/18 10:47:26;;;;;;;4.85;4.55;;;;;;;11.40;94.65;99913.09;6073834;23;20413;-70
2022/11/18 10:49:59;;;;;;;5.57;5.07;;;;;;;10.68;96.10;99833.94;6087089;23;20056;-69
2022/11/18 10:52:28;;;;;;;7.30;4.88;;;;;;;10.24;97.43;99782.59;6045238;23;20093;-69
2022/11/18 10:55:25;;;;;;;4.78;4.57;;;;;;;10.98;99.62;99913.28;6064768;23;20418;-69
2022/11/18 10:58:14;;;;;;;5.05;4.65;;;;;;;10.74;99.94;99880.78;6041432;23;20037;-69
2022/11/18 11:00:46;;;;;;;4.43;4.22;;;;;;;10.90;100.00;99893.72;6041715;23;20048;-71
2022/11/18 11:03:32;;;;;;;4.53;4.32;;;;;;;10.93;100.00;99923.25;6069565;23;20021;-71
2022/11/18 11:06:21;;;;;;;5.13;4.63;;;;;;;10.80;100.00;99916.28;6074634;23;20046;-68
2022/11/18 11:08:55;;;;;;;10.35;5.22;;;;;;;10.67;100.00;99924.13;6073530;23;20639;-69
2022/11/18 11:11:27;;;;;;;6.18;4.63;;;;;;;10.51;100.00;99913.78;6073929;23;20017;-70
2022/11/18 11:14:04;;;;;;;4.82;4.55;;;;;;;9.45;100.00;99750.94;6054957;23;20027;-69
2022/11/18 11:16:35;;;;;;;5.00;4.55;;;;;;;9.95;100.00;99858.72;6064584;23;20067;-69
2022/11/18 11:19:02;;;;;;;4.38;4.15;;;;;;;10.23;100.00;99884.03;6059163;23;20749;-69
2022/11/18 11:21:29;;;;;;;4.95;4.55;;;;;;;10.71;100.00;99933.47;6039908;23;20015;-69
2022/11/18 11:23:56;;;;;;;4.97;4.53;;;;;;;11.00;100.00;99949.91;6061426;23;20044;-69
2022/11/18 11:27:02;;;;;;;4.40;4.20;;;;;;;11.24;100.00;99941.38;6065304;23;20026;-71
2022/11/18 11:30:11;;;;;;;6.45;5.18;;;;;;;10.95;100.00;99944.97;6070061;23;20080;-71
2022/11/18 11:33:00;;;;;;;4.80;4.50;;;;;;;10.81;100.00;99938.97;6077765;23;20523;-71
2022/11/18 11:35:35;;;;;;;7.22;6.20;;;;;;;9.98;100.00;99824.44;6031603;23;20015;-71
2022/11/18 11:38:12;;;;;;;7.05;6.05;;;;;;;10.73;100.00;99942.09;6054304;23;20106;-69
2022/11/18 11:40:50;;;;;;;10.20;6.60;;;;;;;10.74;100.00;99934.13;6059111;23;20456;-70
2022/11/18 11:43:43;;;;;;;7.50;5.88;;;;;;;10.70;100.00;99931.78;6059419;23;20602;-70
2022/11/18 11:46:26;;;;;;;5.03;4.63;;;;;;;10.66;100.00;99933.75;6053807;23;20500;-69
2022/11/18 11:48:56;;;;;;;;;;;;;;;10.59;100.00;99935.09;6047222;23;20268;-70
2022/11/18 11:51:35;;;;;;;4.40;4.10;;;;;;;10.53;100.00;99932.88;6074880;23;19917;-71
2022/11/18 11:54:13;;;;;;;6.28;5.43;;;;;;;10.46;100.00;99936.81;6072867;23;20108;-70
2022/11/18 11:56:54;;;;;;;4.50;4.30;;;;;;;10.38;100.00;99938.16;6059787;23;20022;-69
2022/11/18 11:59:44;;;;;;;4.47;4.28;;;;;;;10.35;100.00;99945.38;6067421;23;20010;-71
2022/11/18 12:02:33;;;;;;;9.75;4.68;;;;;;;10.28;100.00;99936.19;6054381;23;20016;-71
2022/11/18 12:05:09;;;;;;;4.50;4.30;;;;;;;10.24;100.00;99938.16;6036931;23;20068;-71